createdAt,value
2017-12-22T00:00:49.412Z,102454.35
2017-12-22T00:01:51.918Z,102449.95
2017-12-22T00:02:54.391Z,102456.56
2017-12-22T00:03:56.888Z,102449.80
2017-12-22T00:04:59.354Z,102456.41
2017-12-22T00:06:01.819Z,102456.27
2017-12-22T00:07:04.288Z,102448.14
2017-12-22T00:08:06.750Z,102446.77
2017-12-22T00:09:09.244Z,102447.46
2017-12-22T00:10:11.716Z,102446.64
2017-12-22T00:11:14.190Z,102442.92
2017-12-22T00:12:16.650Z,102441.27
2017-12-22T00:13:19.139Z,102438.52
2017-12-22T00:14:21.624Z,102446.38
2017-12-22T00:15:24.082Z,102440.45
2017-12-22T00:16:26.539Z,102440.04
2017-12-22T00:17:29.012Z,102443.90
2017-12-22T00:18:31.480Z,102442.11
2017-12-22T00:19:33.980Z,102444.86
2017-12-22T00:20:36.443Z,102441.42
2017-12-22T00:21:38.920Z,102440.61
2017-12-22T00:22:41.392Z,102436.48
2017-12-22T00:23:43.872Z,102439.92
2017-12-22T00:24:46.354Z,102438.55
2017-12-22T00:25:48.833Z,102437.17
2017-12-22T00:26:51.306Z,102442.82
2017-12-22T00:27:53.785Z,102435.94
2017-12-22T00:28:56.268Z,102431.53
2017-12-22T00:29:58.782Z,102441.72
2017-12-22T00:31:01.250Z,102440.34
2017-12-22T00:32:03.745Z,102439.52
2017-12-22T00:33:06.222Z,102434.16
2017-12-22T00:34:08.687Z,102430.31
2017-12-22T00:35:11.186Z,102429.48
2017-12-22T00:36:13.654Z,102432.77
2017-12-22T00:37:16.122Z,102425.36
2017-12-22T00:38:18.600Z,102431.83
2017-12-22T00:39:21.072Z,102427.70
2017-12-22T00:40:23.557Z,102427.70
2017-12-22T00:41:26.017Z,102421.64
2017-12-22T00:42:28.474Z,102423.84
2017-12-22T00:43:30.949Z,102414.20
2017-12-22T00:44:33.428Z,102417.38
2017-12-22T00:45:35.913Z,102419.30
2017-12-22T00:46:38.375Z,102419.30
2017-12-22T00:47:40.849Z,102418.20
2017-12-22T00:48:43.314Z,102414.76
2017-12-22T00:49:45.874Z,102413.24
2017-12-22T00:50:48.373Z,102408.70
2017-12-22T00:51:50.839Z,102413.94
2017-12-22T00:52:53.306Z,102412.01
2017-12-22T00:53:55.777Z,102407.58
2017-12-22T00:54:58.252Z,102416.69
2017-12-22T00:56:00.738Z,102414.05
2017-12-22T00:57:03.198Z,102418.73
2017-12-22T00:58:05.662Z,102413.78
2017-12-22T00:59:08.136Z,102410.20
2017-12-22T01:00:10.595Z,102409.37
2017-12-22T01:01:13.088Z,102408.55
2017-12-22T01:02:15.567Z,102402.64
2017-12-22T01:03:18.044Z,102402.37
2017-12-22T01:04:20.521Z,102401.95
2017-12-22T01:05:22.997Z,102402.09
2017-12-22T01:06:25.496Z,102400.04
2017-12-22T01:07:27.974Z,102397.70
2017-12-22T01:08:30.435Z,102399.36
2017-12-22T01:09:32.909Z,102396.61
2017-12-22T01:10:35.438Z,102398.95
2017-12-22T01:11:37.920Z,102397.71
2017-12-22T01:12:40.396Z,102407.75
2017-12-22T01:13:43.118Z,102400.88
2017-12-22T01:14:45.605Z,102400.88
2017-12-22T01:15:53.758Z,102402.25
2017-12-22T01:17:01.949Z,102404.59
2017-12-22T01:18:10.020Z,102403.07
2017-12-22T01:19:19.914Z,102403.22
2017-12-22T01:20:22.378Z,102405.14
2017-12-22T01:21:24.848Z,102408.01
2017-12-22T01:22:27.340Z,102405.80
2017-12-22T01:23:29.818Z,102401.41
2017-12-22T01:24:32.760Z,102402.78
2017-12-22T01:25:35.218Z,102407.05
2017-12-22T01:26:37.694Z,102408.02
2017-12-22T01:27:40.189Z,102402.24
2017-12-22T01:28:42.664Z,102406.37
2017-12-22T01:29:45.128Z,102404.58
2017-12-22T01:30:47.612Z,102404.69
2017-12-22T01:31:50.069Z,102404.17
2017-12-22T01:32:52.648Z,102397.81
2017-12-22T01:33:55.129Z,102400.30
2017-12-22T01:34:57.613Z,102396.31
2017-12-22T01:36:00.073Z,102399.88
2017-12-22T01:37:02.577Z,102402.77
2017-12-22T01:38:05.059Z,102400.02
2017-12-22T01:39:07.531Z,102388.19
2017-12-22T01:40:10.005Z,102392.32
2017-12-22T01:41:12.707Z,102387.37
2017-12-22T01:42:15.164Z,102387.52
2017-12-22T01:43:17.687Z,102390.67
2017-12-22T01:44:20.133Z,102392.05
2017-12-22T01:45:22.590Z,102386.13
2017-12-22T01:46:25.067Z,102389.44
2017-12-22T01:47:27.565Z,102386.69
2017-12-22T01:48:30.039Z,102383.66
2017-12-22T01:49:32.500Z,102390.81
2017-12-22T01:50:34.972Z,102383.24
2017-12-22T01:51:37.433Z,102387.78
2017-12-22T01:52:39.909Z,102383.10
2017-12-22T01:53:42.384Z,102384.89
2017-12-22T01:54:44.860Z,102387.50
2017-12-22T01:55:47.332Z,102387.50
2017-12-22T01:56:49.828Z,102381.58
2017-12-22T01:57:52.294Z,102385.98
2017-12-22T01:58:54.755Z,102382.67
2017-12-22T01:59:57.237Z,102379.41
2017-12-22T02:00:59.826Z,102380.64
2017-12-22T02:02:02.329Z,102387.52
2017-12-22T02:03:04.804Z,102380.91
2017-12-22T02:04:07.269Z,102383.11
2017-12-22T02:05:09.749Z,102375.41
2017-12-22T02:06:12.211Z,102381.73
2017-12-22T02:07:14.704Z,102373.47
2017-12-22T02:08:17.162Z,102374.84
2017-12-22T02:09:19.625Z,102375.81
2017-12-22T02:10:22.082Z,102375.67
2017-12-22T02:11:24.688Z,102371.69
2017-12-22T02:12:27.151Z,102372.23
2017-12-22T02:13:29.614Z,102370.72
2017-12-22T02:14:32.074Z,102370.58
2017-12-22T02:15:34.643Z,102367.15
2017-12-22T02:16:37.106Z,102364.95
2017-12-22T02:17:39.565Z,102370.86
2017-12-22T02:18:42.045Z,102371.56
2017-12-22T02:19:44.507Z,102373.89
2017-12-22T02:20:46.983Z,102367.68
2017-12-22T02:21:49.589Z,102373.73
2017-12-22T02:22:52.066Z,102364.80
2017-12-22T02:23:55.011Z,102363.02
2017-12-22T02:24:57.478Z,102366.31
2017-12-22T02:25:59.942Z,102363.30
2017-12-22T02:27:02.402Z,102365.08
2017-12-22T02:28:04.885Z,102355.87
2017-12-22T02:29:07.360Z,102358.90
2017-12-22T02:30:09.842Z,102360.83
2017-12-22T02:31:12.303Z,102354.50
2017-12-22T02:32:14.767Z,102356.02
2017-12-22T02:33:17.232Z,102360.14
2017-12-22T02:34:19.691Z,102355.20
2017-12-22T02:35:22.180Z,102356.85
2017-12-22T02:36:24.657Z,102353.42
2017-12-22T02:37:27.115Z,102346.82
2017-12-22T02:38:29.570Z,102343.94
2017-12-22T02:39:32.065Z,102346.83
2017-12-22T02:40:34.531Z,102345.16
2017-12-22T02:41:37.012Z,102344.06
2017-12-22T02:42:39.489Z,102335.95
2017-12-22T02:43:41.951Z,102339.39
2017-12-22T02:44:44.431Z,102338.72
2017-12-22T02:45:46.912Z,102336.52
2017-12-22T02:46:49.389Z,102334.17
2017-12-22T02:47:51.865Z,102335.84
2017-12-22T02:48:54.327Z,102337.63
2017-12-22T02:49:56.830Z,102334.19
2017-12-22T02:50:59.294Z,102339.28
2017-12-22T02:52:01.785Z,102330.75
2017-12-22T02:53:04.246Z,102330.34
2017-12-22T02:54:06.699Z,102332.27
2017-12-22T02:55:09.204Z,102332.69
2017-12-22T02:56:11.677Z,102337.63
2017-12-22T02:57:14.152Z,102328.42
2017-12-22T02:58:16.624Z,102335.98
2017-12-22T02:59:19.082Z,102334.87
2017-12-22T03:00:21.562Z,102334.31
2017-12-22T03:01:24.017Z,102335.97
2017-12-22T03:02:26.475Z,102336.38
2017-12-22T03:03:28.952Z,102332.25
2017-12-22T03:04:31.432Z,102333.07
2017-12-22T03:05:33.918Z,102337.61
2017-12-22T03:06:36.392Z,102333.62
2017-12-22T03:07:38.864Z,102336.92
2017-12-22T03:08:41.337Z,102334.73
2017-12-22T03:09:43.806Z,102329.92
2017-12-22T03:10:46.300Z,102332.26
2017-12-22T03:11:48.772Z,102331.17
2017-12-22T03:12:51.305Z,102335.70
2017-12-22T03:13:53.726Z,102330.34
2017-12-22T03:14:56.186Z,102328.97
2017-12-22T03:15:58.686Z,102330.20
2017-12-22T03:17:01.162Z,102325.24
2017-12-22T03:18:03.626Z,102327.98
2017-12-22T03:19:06.101Z,102324.66
2017-12-22T03:20:08.558Z,102327.82
2017-12-22T03:21:11.052Z,102331.37
2017-12-22T03:22:13.529Z,102324.91
2017-12-22T03:23:16.008Z,102317.30
2017-12-22T03:24:18.467Z,102318.23
2017-12-22T03:25:20.941Z,102318.88
2017-12-22T03:26:23.440Z,102315.30
2017-12-22T03:27:25.898Z,102315.68
2017-12-22T03:28:28.376Z,102310.69
2017-12-22T03:29:30.835Z,102309.58
2017-12-22T03:30:33.313Z,102310.25
2017-12-22T03:31:35.810Z,102302.97
2017-12-22T03:32:38.305Z,102309.16
2017-12-22T03:33:40.763Z,102303.09
2017-12-22T03:34:43.227Z,102308.87
2017-12-22T03:35:45.701Z,102304.73
2017-12-22T03:36:48.197Z,102302.80
2017-12-22T03:37:50.673Z,102306.23
2017-12-22T03:38:53.148Z,102308.44
2017-12-22T03:39:55.624Z,102308.84
2017-12-22T03:40:58.105Z,102309.67
2017-12-22T03:42:00.595Z,102303.34
2017-12-22T03:43:03.076Z,102310.38
2017-12-22T03:44:05.539Z,102305.97
2017-12-22T03:45:08.015Z,102305.44
2017-12-22T03:46:10.493Z,102310.27
2017-12-22T03:47:12.966Z,102304.08
2017-12-22T03:48:15.426Z,102305.19
2017-12-22T03:49:17.901Z,102302.28
2017-12-22T03:50:20.359Z,102308.48
2017-12-22T03:51:22.815Z,102300.10
2017-12-22T03:52:25.309Z,102300.66
2017-12-22T03:53:27.791Z,102301.91
2017-12-22T03:54:30.254Z,102296.55
2017-12-22T03:55:32.715Z,102300.00
2017-12-22T03:56:35.170Z,102300.70
2017-12-22T03:57:38.107Z,102298.50
2017-12-22T03:58:40.584Z,102290.80
2017-12-22T03:59:43.052Z,102298.78
2017-12-22T04:00:45.510Z,102295.20
2017-12-22T04:01:47.996Z,102292.74
2017-12-22T04:02:50.490Z,102292.03
2017-12-22T04:03:53.005Z,102293.70
2017-12-22T04:04:55.467Z,102293.43
2017-12-22T04:05:57.936Z,102297.14
2017-12-22T04:07:00.392Z,102295.91
2017-12-22T04:08:02.857Z,102289.58
2017-12-22T04:09:05.310Z,102293.03
2017-12-22T04:10:07.774Z,102293.73
2017-12-22T04:11:10.258Z,102296.08
2017-12-22T04:12:12.728Z,102298.97
2017-12-22T04:13:15.205Z,102295.53
2017-12-22T04:14:17.671Z,102296.09
2017-12-22T04:15:20.148Z,102298.02
2017-12-22T04:16:22.636Z,102295.55
2017-12-22T04:17:25.126Z,102291.02
2017-12-22T04:18:27.605Z,102300.80
2017-12-22T04:19:30.083Z,102294.05
2017-12-22T04:20:32.560Z,102297.88
2017-12-22T04:21:35.033Z,102296.09
2017-12-22T04:22:37.498Z,102298.84
2017-12-22T04:23:39.969Z,102295.27
2017-12-22T04:24:42.442Z,102294.72
2017-12-22T04:25:44.921Z,102294.31
2017-12-22T04:26:47.485Z,102295.41
2017-12-22T04:27:49.961Z,102287.71
2017-12-22T04:28:52.433Z,102287.71
2017-12-22T04:29:54.905Z,102282.62
2017-12-22T04:30:57.377Z,102281.94
2017-12-22T04:31:59.853Z,102281.12
2017-12-22T04:33:02.331Z,102280.16
2017-12-22T04:34:04.808Z,102278.51
2017-12-22T04:35:07.277Z,102279.73
2017-12-22T04:36:09.743Z,102281.12
2017-12-22T04:37:12.219Z,102281.26
2017-12-22T04:38:14.674Z,102281.41
2017-12-22T04:39:17.148Z,102279.76
2017-12-22T04:40:19.621Z,102289.95
2017-12-22T04:41:22.093Z,102280.19
2017-12-22T04:42:24.551Z,102279.06
2017-12-22T04:43:27.029Z,102280.73
2017-12-22T04:44:29.501Z,102279.63
2017-12-22T04:45:31.954Z,102280.74
2017-12-22T04:46:34.410Z,102284.98
2017-12-22T04:47:36.874Z,102283.89
2017-12-22T04:48:39.357Z,102283.06
2017-12-22T04:49:41.818Z,102283.48
2017-12-22T04:50:44.272Z,102291.73
2017-12-22T04:51:46.735Z,102295.45
2017-12-22T04:52:49.209Z,102291.47
2017-12-22T04:53:51.693Z,102297.52
2017-12-22T04:54:54.167Z,102299.59
2017-12-22T04:55:56.635Z,102298.23
2017-12-22T04:56:59.098Z,102303.05
2017-12-22T04:58:01.580Z,102292.33
2017-12-22T04:59:04.046Z,102298.94
2017-12-22T05:00:06.527Z,102299.78
2017-12-22T05:01:09.016Z,102294.26
2017-12-22T05:02:11.485Z,102290.69
2017-12-22T05:03:13.943Z,102285.47
2017-12-22T05:04:16.416Z,102286.02
2017-12-22T05:05:18.874Z,102278.59
2017-12-22T05:06:21.340Z,102283.80
2017-12-22T05:07:23.804Z,102283.39
2017-12-22T05:08:26.258Z,102282.29
2017-12-22T05:09:28.728Z,102289.47
2017-12-22T05:10:31.186Z,102283.83
2017-12-22T05:11:33.660Z,102283.27
2017-12-22T05:12:36.123Z,102289.33
2017-12-22T05:13:38.596Z,102285.61
2017-12-22T05:14:41.076Z,102281.07
2017-12-22T05:15:43.530Z,102282.45
2017-12-22T05:16:46.005Z,102290.30
2017-12-22T05:17:48.466Z,102283.14
2017-12-22T05:18:50.934Z,102280.09
2017-12-22T05:19:53.408Z,102279.27
2017-12-22T05:20:55.888Z,102279.12
2017-12-22T05:21:58.361Z,102275.83
2017-12-22T05:23:00.828Z,102279.37
2017-12-22T05:24:03.286Z,102277.44
2017-12-22T05:25:05.789Z,102280.44
2017-12-22T05:26:08.247Z,102280.97
2017-12-22T05:27:10.715Z,102277.63
2017-12-22T05:28:13.177Z,102283.92
2017-12-22T05:29:15.653Z,102278.50
2017-12-22T05:30:18.115Z,102281.77
2017-12-22T05:31:20.590Z,102280.52
2017-12-22T05:32:23.069Z,102283.69
2017-12-22T05:33:25.526Z,102285.34
2017-12-22T05:34:28.029Z,102282.58
2017-12-22T05:35:30.509Z,102283.27
2017-12-22T05:36:32.967Z,102280.09
2017-12-22T05:37:35.430Z,102280.51
2017-12-22T05:38:37.891Z,102281.88
2017-12-22T05:39:40.346Z,102280.24
2017-12-22T05:40:42.821Z,102278.59
2017-12-22T05:41:45.279Z,102275.16
2017-12-22T05:42:47.739Z,102278.59
2017-12-22T05:43:50.211Z,102274.74
2017-12-22T05:44:52.666Z,102281.09
2017-12-22T05:45:55.136Z,102280.83
2017-12-22T05:46:57.614Z,102277.13
2017-12-22T05:48:00.074Z,102278.23
2017-12-22T05:49:02.572Z,102280.72
2017-12-22T05:50:05.048Z,102278.81
2017-12-22T05:51:07.514Z,102285.42
2017-12-22T05:52:09.975Z,102279.66
2017-12-22T05:53:12.430Z,102279.39
2017-12-22T05:54:14.908Z,102284.19
2017-12-22T05:55:17.386Z,102281.72
2017-12-22T05:56:19.884Z,102281.04
2017-12-22T05:57:22.339Z,102285.86
2017-12-22T05:58:24.797Z,102279.00
2017-12-22T05:59:27.273Z,102284.36
2017-12-22T06:00:29.908Z,102280.93
2017-12-22T06:01:32.389Z,102286.58
2017-12-22T06:02:34.869Z,102283.42
2017-12-22T06:03:37.339Z,102276.27
2017-12-22T06:04:39.794Z,102278.05
2017-12-22T06:05:42.272Z,102282.88
2017-12-22T06:06:44.726Z,102278.48
2017-12-22T06:07:47.195Z,102276.55
2017-12-22T06:08:49.654Z,102284.41
2017-12-22T06:09:52.110Z,102288.67
2017-12-22T06:10:54.585Z,102282.76
2017-12-22T06:11:57.064Z,102280.00
2017-12-22T06:12:59.631Z,102280.56
2017-12-22T06:14:02.105Z,102277.39
2017-12-22T06:15:04.580Z,102274.92
2017-12-22T06:16:07.057Z,102284.41
2017-12-22T06:17:09.515Z,102277.25
2017-12-22T06:18:11.975Z,102281.12
2017-12-22T06:19:14.452Z,102284.56
2017-12-22T06:20:16.925Z,102288.02
2017-12-22T06:21:19.383Z,102289.67
2017-12-22T06:22:21.860Z,102282.12
2017-12-22T06:23:24.319Z,102285.55
2017-12-22T06:24:26.787Z,102288.56
2017-12-22T06:25:29.264Z,102291.02
2017-12-22T06:26:31.744Z,102286.46
2017-12-22T06:27:34.215Z,102286.89
2017-12-22T06:28:36.714Z,102286.42
2017-12-22T06:29:39.178Z,102286.67
2017-12-22T06:30:41.634Z,102285.72
2017-12-22T06:31:44.114Z,102286.54
2017-12-22T06:32:46.582Z,102283.50
2017-12-22T06:33:49.042Z,102289.12
2017-12-22T06:34:51.503Z,102285.96
2017-12-22T06:35:53.981Z,102286.64
2017-12-22T06:36:56.574Z,102281.69
2017-12-22T06:37:59.067Z,102282.52
2017-12-22T06:39:01.548Z,102285.39
2017-12-22T06:40:04.028Z,102281.28
2017-12-22T06:41:06.737Z,102282.13
2017-12-22T06:42:09.338Z,102287.76
2017-12-22T06:43:11.845Z,102284.61
2017-12-22T06:44:14.321Z,102288.06
2017-12-22T06:45:16.800Z,102286.28
2017-12-22T06:46:19.266Z,102291.35
2017-12-22T06:47:21.744Z,102290.40
2017-12-22T06:48:24.220Z,102289.54
2017-12-22T06:49:26.692Z,102292.95
2017-12-22T06:50:29.371Z,102289.33
2017-12-22T06:51:31.885Z,102291.25
2017-12-22T06:52:34.418Z,102289.18
2017-12-22T06:53:36.890Z,102293.31
2017-12-22T06:54:39.346Z,102282.58
2017-12-22T06:55:41.854Z,102285.48
2017-12-22T06:56:44.304Z,102290.31
2017-12-22T06:57:46.781Z,102284.53
2017-12-22T06:58:49.260Z,102289.19
2017-12-22T06:59:51.726Z,102284.80
2017-12-22T07:00:54.187Z,102285.91
2017-12-22T07:01:56.647Z,102285.22
2017-12-22T07:02:59.124Z,102285.92
2017-12-22T07:04:01.601Z,102291.31
2017-12-22T07:05:04.058Z,102289.25
2017-12-22T07:06:06.514Z,102288.70
2017-12-22T07:07:08.971Z,102287.16
2017-12-22T07:08:11.427Z,102288.11
2017-12-22T07:09:13.896Z,102289.14
2017-12-22T07:10:16.351Z,102282.91
2017-12-22T07:11:18.874Z,102288.91
2017-12-22T07:12:21.306Z,102286.95
2017-12-22T07:13:23.771Z,102288.31
2017-12-22T07:14:26.226Z,102281.84
2017-12-22T07:15:28.710Z,102281.67
2017-12-22T07:16:31.179Z,102287.45
2017-12-22T07:17:33.659Z,102280.97
2017-12-22T07:18:36.174Z,102288.68
2017-12-22T07:19:38.648Z,102288.95
2017-12-22T07:20:41.102Z,102287.56
2017-12-22T07:21:43.578Z,102289.67
2017-12-22T07:22:46.034Z,102288.31
2017-12-22T07:23:48.494Z,102294.52
2017-12-22T07:24:50.965Z,102292.63
2017-12-22T07:25:53.422Z,102296.52
2017-12-22T07:26:55.878Z,102288.83
2017-12-22T07:27:58.357Z,102290.10
2017-12-22T07:29:00.818Z,102292.73
2017-12-22T07:30:03.282Z,102295.78
2017-12-22T07:31:05.757Z,102300.05
2017-12-22T07:32:08.228Z,102304.19
2017-12-22T07:33:10.686Z,102302.95
2017-12-22T07:34:13.167Z,102299.23
2017-12-22T07:35:15.651Z,102302.13
2017-12-22T07:36:18.120Z,102302.80
2017-12-22T07:37:20.597Z,102301.52
2017-12-22T07:38:23.064Z,102299.83
2017-12-22T07:39:25.522Z,102302.66
2017-12-22T07:40:28.931Z,102308.98
2017-12-22T07:41:31.403Z,102303.02
2017-12-22T07:42:33.862Z,102312.90
2017-12-22T07:43:36.337Z,102313.72
2017-12-22T07:44:38.799Z,102318.09
2017-12-22T07:45:41.272Z,102317.42
2017-12-22T07:46:43.749Z,102316.58
2017-12-22T07:47:46.206Z,102314.94
2017-12-22T07:48:49.741Z,102324.84
2017-12-22T07:49:52.216Z,102325.95
2017-12-22T07:50:54.676Z,102322.38
2017-12-22T07:51:57.154Z,102327.60
2017-12-22T07:52:59.616Z,102329.69
2017-12-22T07:54:02.075Z,102325.28
2017-12-22T07:55:04.535Z,102327.91
2017-12-22T07:56:07.005Z,102333.33
2017-12-22T07:57:09.464Z,102332.67
2017-12-22T07:58:11.938Z,102335.29
2017-12-22T07:59:14.417Z,102326.78
2017-12-22T08:00:16.884Z,102331.22
2017-12-22T08:01:19.343Z,102335.25
2017-12-22T08:02:21.816Z,102337.88
2017-12-22T08:03:24.272Z,102333.91
2017-12-22T08:04:26.761Z,102332.69
2017-12-22T08:05:29.217Z,102334.64
2017-12-22T08:06:31.690Z,102345.23
2017-12-22T08:07:34.150Z,102339.06
2017-12-22T08:08:36.618Z,102347.90
2017-12-22T08:09:39.097Z,102349.44
2017-12-22T08:10:41.554Z,102344.64
2017-12-22T08:11:44.014Z,102348.20
2017-12-22T08:12:46.494Z,102352.91
2017-12-22T08:13:48.958Z,102350.31
2017-12-22T08:14:51.433Z,102350.73
2017-12-22T08:15:53.939Z,102349.52
2017-12-22T08:16:56.417Z,102360.52
2017-12-22T08:17:58.870Z,102357.63
2017-12-22T08:19:01.333Z,102353.38
2017-12-22T08:20:03.805Z,102347.60
2017-12-22T08:21:06.270Z,102352.56
2017-12-22T08:22:08.730Z,102349.94
2017-12-22T08:23:11.200Z,102348.44
2017-12-22T08:24:13.662Z,102353.78
2017-12-22T08:25:16.140Z,102356.55
2017-12-22T08:26:18.612Z,102359.99
2017-12-22T08:27:21.079Z,102353.95
2017-12-22T08:28:23.573Z,102352.44
2017-12-22T08:29:26.035Z,102360.98
2017-12-22T08:30:28.534Z,102352.73
2017-12-22T08:31:31.005Z,102350.00
2017-12-22T08:32:33.465Z,102348.32
2017-12-22T08:33:35.924Z,102350.41
2017-12-22T08:34:38.389Z,102351.03
2017-12-22T08:35:40.855Z,102351.45
2017-12-22T08:36:43.319Z,102353.92
2017-12-22T08:37:45.801Z,102349.41
2017-12-22T08:38:48.276Z,102350.07
2017-12-22T08:39:50.746Z,102352.25
2017-12-22T08:40:53.220Z,102354.73
2017-12-22T08:41:55.715Z,102348.25
2017-12-22T08:42:58.192Z,102355.81
2017-12-22T08:44:00.668Z,102352.33
2017-12-22T08:45:03.145Z,102359.05
2017-12-22T08:46:05.622Z,102359.30
2017-12-22T08:47:08.093Z,102359.15
2017-12-22T08:48:10.613Z,102360.68
2017-12-22T08:49:13.086Z,102363.14
2017-12-22T08:50:15.550Z,102362.31
2017-12-22T08:51:18.011Z,102365.36
2017-12-22T08:52:20.479Z,102367.02
2017-12-22T08:53:22.948Z,102363.58
2017-12-22T08:54:25.411Z,102373.22
2017-12-22T08:55:27.870Z,102370.75
2017-12-22T08:56:30.348Z,102366.75
2017-12-22T08:57:32.829Z,102373.92
2017-12-22T08:58:35.290Z,102382.59
2017-12-22T08:59:37.764Z,102381.75
2017-12-22T09:00:40.226Z,102380.11
2017-12-22T09:01:42.687Z,102386.59
2017-12-22T09:02:45.160Z,102385.64
2017-12-22T09:03:47.634Z,102380.30
2017-12-22T09:04:50.162Z,102383.44
2017-12-22T09:05:52.663Z,102386.63
2017-12-22T09:06:55.149Z,102386.08
2017-12-22T09:07:57.687Z,102389.53
2017-12-22T09:09:00.188Z,102393.39
2017-12-22T09:10:02.665Z,102387.62
2017-12-22T09:11:05.145Z,102391.34
2017-12-22T09:12:07.611Z,102389.95
2017-12-22T09:13:10.120Z,102393.41
2017-12-22T09:14:12.596Z,102392.99
2017-12-22T09:15:15.124Z,102395.89
2017-12-22T09:16:17.655Z,102395.77
2017-12-22T09:17:20.115Z,102402.78
2017-12-22T09:18:22.626Z,102405.53
2017-12-22T09:19:25.091Z,102400.17
2017-12-22T09:20:27.575Z,102397.53
2017-12-22T09:21:30.088Z,102396.16
2017-12-22T09:22:32.536Z,102393.13
2017-12-22T09:23:35.001Z,102391.75
2017-12-22T09:24:37.554Z,102393.69
2017-12-22T09:25:40.038Z,102392.31
2017-12-22T09:26:43.697Z,102387.36
2017-12-22T09:27:46.244Z,102390.66
2017-12-22T09:28:48.735Z,102382.55
2017-12-22T09:29:51.227Z,102384.33
2017-12-22T09:30:53.721Z,102385.44
2017-12-22T09:31:56.196Z,102386.55
2017-12-22T09:32:58.658Z,102395.77
2017-12-22T09:34:01.139Z,102398.94
2017-12-22T09:35:03.673Z,102397.28
2017-12-22T09:36:06.160Z,102400.04
2017-12-22T09:37:08.636Z,102401.97
2017-12-22T09:38:11.125Z,102406.09
2017-12-22T09:39:13.606Z,102402.52
2017-12-22T09:40:16.089Z,102409.95
2017-12-22T09:41:18.608Z,102410.09
2017-12-22T09:42:21.088Z,102404.59
2017-12-22T09:43:23.567Z,102408.31
2017-12-22T09:44:26.042Z,102398.38
2017-12-22T09:45:28.532Z,102406.22
2017-12-22T09:46:31.101Z,102408.01
2017-12-22T09:47:33.568Z,102408.56
2017-12-22T09:48:36.027Z,102408.97
2017-12-22T09:49:38.500Z,102408.97
2017-12-22T09:50:40.973Z,102414.61
2017-12-22T09:51:43.461Z,102414.20
2017-12-22T09:52:45.969Z,102411.86
2017-12-22T09:53:48.446Z,102410.08
2017-12-22T09:54:50.928Z,102414.20
2017-12-22T09:55:53.420Z,102410.36
2017-12-22T09:56:55.894Z,102409.80
2017-12-22T09:57:58.366Z,102410.36
2017-12-22T09:59:00.912Z,102407.61
2017-12-22T10:00:03.375Z,102413.66
2017-12-22T10:01:05.912Z,102412.28
2017-12-22T10:02:08.399Z,102412.84
2017-12-22T10:03:10.906Z,102410.50
2017-12-22T10:04:13.372Z,102413.25
2017-12-22T10:05:15.868Z,102409.27
2017-12-22T10:06:18.347Z,102417.52
2017-12-22T10:07:20.837Z,102419.83
2017-12-22T10:08:23.317Z,102418.89
2017-12-22T10:09:25.813Z,102419.56
2017-12-22T10:10:28.299Z,102419.00
2017-12-22T10:11:30.780Z,102424.09
2017-12-22T10:12:33.258Z,102424.23
2017-12-22T10:13:35.752Z,102420.11
2017-12-22T10:14:38.237Z,102422.03
2017-12-22T10:15:40.695Z,102426.99
2017-12-22T10:16:43.184Z,102420.66
2017-12-22T10:17:45.729Z,102432.22
2017-12-22T10:18:48.206Z,102435.94
2017-12-22T10:19:50.749Z,102433.59
2017-12-22T10:20:53.269Z,102433.59
2017-12-22T10:21:55.757Z,102421.36
2017-12-22T10:22:58.220Z,102430.02
2017-12-22T10:24:00.705Z,102428.23
2017-12-22T10:25:03.210Z,102429.61
2017-12-22T10:26:05.705Z,102426.17
2017-12-22T10:27:08.166Z,102429.75
2017-12-22T10:28:10.630Z,102429.75
2017-12-22T10:29:13.094Z,102430.45
2017-12-22T10:30:15.557Z,102427.28
2017-12-22T10:31:18.034Z,102428.66
2017-12-22T10:32:20.521Z,102426.87
2017-12-22T10:33:22.996Z,102419.44
2017-12-22T10:34:25.459Z,102425.08
2017-12-22T10:35:27.918Z,102428.39
2017-12-22T10:36:30.397Z,102426.19
2017-12-22T10:37:32.884Z,102427.56
2017-12-22T10:38:35.364Z,102432.66
2017-12-22T10:39:37.845Z,102424.95
2017-12-22T10:40:40.317Z,102426.87
2017-12-22T10:41:42.770Z,102425.36
2017-12-22T10:42:45.269Z,102428.53
2017-12-22T10:43:47.726Z,102428.67
2017-12-22T10:44:50.204Z,102421.92
2017-12-22T10:45:52.684Z,102427.02
2017-12-22T10:46:55.190Z,102429.77
2017-12-22T10:47:57.683Z,102425.64
2017-12-22T10:49:00.157Z,102430.73
2017-12-22T10:50:02.637Z,102426.61
2017-12-22T10:51:05.098Z,102416.56
2017-12-22T10:52:07.571Z,102421.11
2017-12-22T10:53:10.069Z,102417.94
2017-12-22T10:54:12.531Z,102409.27
2017-12-22T10:55:14.986Z,102410.23
2017-12-22T10:56:17.475Z,102410.23
2017-12-22T10:57:19.936Z,102418.91
2017-12-22T10:58:22.442Z,102420.42
2017-12-22T10:59:24.923Z,102424.14
2017-12-22T11:00:28.317Z,102426.75
2017-12-22T11:01:30.786Z,102426.89
2017-12-22T11:02:33.280Z,102425.24
2017-12-22T11:03:35.802Z,102423.45
2017-12-22T11:04:38.279Z,102429.51
2017-12-22T11:05:40.734Z,102427.17
2017-12-22T11:06:43.195Z,102433.49
2017-12-22T11:07:45.669Z,102427.17
2017-12-22T11:08:48.248Z,102429.09
2017-12-22T11:09:50.721Z,102431.84
2017-12-22T11:10:53.179Z,102431.02
2017-12-22T11:11:55.756Z,102431.02
2017-12-22T11:12:58.240Z,102438.73
2017-12-22T11:14:00.722Z,102433.92
2017-12-22T11:15:03.198Z,102428.83
2017-12-22T11:16:05.669Z,102430.75
2017-12-22T11:17:08.134Z,102431.27
2017-12-22T11:18:10.608Z,102425.09
2017-12-22T11:19:14.027Z,102432.79
2017-12-22T11:20:16.508Z,102426.05
2017-12-22T11:21:18.968Z,102430.04
2017-12-22T11:22:21.430Z,102423.71
2017-12-22T11:23:23.906Z,102424.67
2017-12-22T11:24:26.477Z,102415.59
2017-12-22T11:25:28.947Z,102416.15
2017-12-22T11:26:31.420Z,102414.22
2017-12-22T11:27:33.878Z,102416.97
2017-12-22T11:28:36.349Z,102412.44
2017-12-22T11:29:38.849Z,102417.94
2017-12-22T11:30:41.320Z,102417.11
2017-12-22T11:31:43.806Z,102412.58
2017-12-22T11:32:46.263Z,102416.29
2017-12-22T11:33:49.576Z,102417.80
2017-12-22T11:34:52.069Z,102423.17
2017-12-22T11:35:54.533Z,102415.05
2017-12-22T11:36:57.007Z,102417.39
2017-12-22T11:37:59.475Z,102423.45
2017-12-22T11:39:01.961Z,102422.48
2017-12-22T11:40:04.460Z,102421.66
2017-12-22T11:41:06.942Z,102418.36
2017-12-22T11:42:09.403Z,102421.80
2017-12-22T11:43:11.892Z,102417.53
2017-12-22T11:44:14.381Z,102413.95
2017-12-22T11:45:16.876Z,102411.62
2017-12-22T11:46:19.355Z,102419.46
2017-12-22T11:47:21.836Z,102420.02
2017-12-22T11:48:24.294Z,102421.39
2017-12-22T11:49:26.750Z,102420.56
2017-12-22T11:50:29.233Z,102416.02
2017-12-22T11:51:31.686Z,102417.41
2017-12-22T11:52:34.142Z,102408.19
2017-12-22T11:53:36.617Z,102417.41